createdAt,value
2016-11-24T00:00:15.105Z,95.208
2016-11-24T00:03:08.272Z,94.908
2016-11-24T00:06:01.515Z,95.527
2016-11-24T00:08:54.787Z,95.676
2016-11-24T00:11:48.582Z,95.585
2016-11-24T00:14:41.859Z,95.585
2016-11-24T00:17:35.139Z,94.942
2016-11-24T00:20:28.464Z,95.157
2016-11-24T00:23:21.768Z,95.183
2016-11-24T00:26:15.036Z,94.820
2016-11-24T00:29:09.204Z,94.844
2016-11-24T00:32:01.592Z,94.713
2016-11-24T00:34:54.894Z,94.607
2016-11-24T00:37:48.207Z,94.722
2016-11-24T00:40:41.522Z,94.464
2016-11-24T00:43:35.281Z,93.816
2016-11-24T00:46:28.505Z,94.075
2016-11-24T00:49:21.740Z,94.100
2016-11-24T00:52:14.983Z,94.931
2016-11-24T00:55:08.136Z,94.527
2016-11-24T00:58:01.436Z,95.547
2016-11-24T01:00:54.728Z,95.676
2016-11-24T01:03:47.953Z,95.518
2016-11-24T01:06:41.246Z,95.597
2016-11-24T01:09:34.590Z,95.585
2016-11-24T01:12:27.980Z,95.849
2016-11-24T01:15:21.375Z,96.067
2016-11-24T01:18:14.679Z,96.683
2016-11-24T01:21:08.051Z,96.771
2016-11-24T01:24:01.436Z,96.896
2016-11-24T01:26:54.715Z,97.088
2016-11-24T01:29:48.189Z,97.007
2016-11-24T01:32:41.662Z,96.772
2016-11-24T01:35:35.026Z,96.788
2016-11-24T01:38:28.379Z,97.190
2016-11-24T01:41:21.727Z,96.991
2016-11-24T01:44:14.969Z,96.721
2016-11-24T01:47:08.307Z,96.835
2016-11-24T01:50:01.683Z,96.765
2016-11-24T01:52:54.947Z,97.171
2016-11-24T01:55:48.425Z,96.596
2016-11-24T01:58:42.459Z,96.569
2016-11-24T02:01:35.849Z,96.526
2016-11-24T02:04:29.235Z,96.665
2016-11-24T02:07:22.533Z,96.387
2016-11-24T02:10:15.932Z,96.505
2016-11-24T02:13:09.463Z,96.561
2016-11-24T02:16:02.682Z,96.529
2016-11-24T02:18:57.353Z,96.134
2016-11-24T02:21:49.544Z,96.511
2016-11-24T02:24:43.088Z,96.814
2016-11-24T02:27:36.384Z,97.093
2016-11-24T02:30:29.743Z,96.958
2016-11-24T02:33:23.226Z,96.748
2016-11-24T02:36:16.484Z,97.116
2016-11-24T02:39:09.839Z,96.996
2016-11-24T02:42:03.195Z,96.697
2016-11-24T02:44:56.635Z,96.956
2016-11-24T02:47:51.646Z,96.926
2016-11-24T02:50:43.441Z,96.685
2016-11-24T02:53:36.939Z,96.748
2016-11-24T02:56:30.437Z,96.924
2016-11-24T02:59:23.745Z,96.985
2016-11-24T03:02:17.297Z,97.443
2016-11-24T03:05:10.707Z,97.041
2016-11-24T03:08:04.185Z,96.985
2016-11-24T03:10:59.208Z,96.939
2016-11-24T03:13:50.971Z,97.165
2016-11-24T03:16:44.458Z,97.244
2016-11-24T03:19:37.904Z,97.432
2016-11-24T03:22:31.423Z,97.052
2016-11-24T03:25:25.122Z,97.128
2016-11-24T03:28:18.510Z,96.874
2016-11-24T03:31:11.900Z,96.915
2016-11-24T03:34:05.230Z,97.037
2016-11-24T03:36:58.583Z,96.961
2016-11-24T03:39:51.946Z,97.484
2016-11-24T03:42:45.506Z,97.152
2016-11-24T03:45:38.698Z,97.381
2016-11-24T03:48:32.093Z,97.126
2016-11-24T03:51:25.475Z,97.112
2016-11-24T03:54:18.767Z,97.179
2016-11-24T03:57:12.189Z,97.279
2016-11-24T04:00:05.704Z,97.385
2016-11-24T04:02:59.060Z,97.275
2016-11-24T04:05:52.515Z,97.450
2016-11-24T04:08:45.812Z,97.304
2016-11-24T04:11:39.126Z,97.341
2016-11-24T04:14:32.580Z,97.574
2016-11-24T04:17:26.229Z,97.547
2016-11-24T04:20:19.510Z,97.657
2016-11-24T04:23:12.790Z,97.641
2016-11-24T04:26:06.062Z,97.460
2016-11-24T04:28:59.466Z,97.094
2016-11-24T04:31:52.824Z,97.354
2016-11-24T04:34:46.260Z,97.186
2016-11-24T04:37:39.589Z,97.286
2016-11-24T04:40:32.945Z,97.084
2016-11-24T04:43:26.359Z,97.376
2016-11-24T04:46:19.892Z,97.505
2016-11-24T04:49:13.407Z,97.743
2016-11-24T04:52:07.343Z,97.777
2016-11-24T04:55:00.737Z,98.047
2016-11-24T04:57:54.146Z,98.039
2016-11-24T05:00:47.519Z,97.933
2016-11-24T05:03:40.969Z,98.023
2016-11-24T05:06:34.251Z,98.014
2016-11-24T05:09:27.675Z,98.103
2016-11-24T05:12:21.119Z,98.102
2016-11-24T05:15:14.580Z,97.978
2016-11-24T05:18:08.014Z,98.002
2016-11-24T05:21:01.352Z,97.890
2016-11-24T05:23:54.880Z,97.914
2016-11-24T05:26:48.129Z,97.791
2016-11-24T05:29:41.446Z,97.716
2016-11-24T05:32:34.922Z,97.594
2016-11-24T05:35:28.290Z,97.634
2016-11-24T05:38:21.737Z,97.608
2016-11-24T05:41:15.202Z,97.719
2016-11-24T05:44:08.560Z,97.698
2016-11-24T05:47:01.896Z,97.798
2016-11-24T05:49:55.258Z,97.779
2016-11-24T05:52:48.632Z,97.631
2016-11-24T05:55:42.132Z,97.704
2016-11-24T05:58:35.414Z,97.996
2016-11-24T06:01:28.879Z,97.798
2016-11-24T06:04:22.151Z,97.831
2016-11-24T06:07:15.546Z,97.797
2016-11-24T06:10:08.924Z,97.671
2016-11-24T06:13:02.375Z,97.620
2016-11-24T06:15:55.775Z,97.750
2016-11-24T06:18:49.149Z,97.645
2016-11-24T06:21:42.570Z,97.836
2016-11-24T06:24:35.984Z,97.577
2016-11-24T06:27:29.288Z,97.726
2016-11-24T06:30:22.583Z,97.525
2016-11-24T06:33:16.434Z,97.555
2016-11-24T06:36:09.410Z,97.419
2016-11-24T06:39:02.722Z,97.384
2016-11-24T06:41:56.126Z,97.380
2016-11-24T06:44:49.523Z,97.272
2016-11-24T06:47:42.930Z,97.334
2016-11-24T06:50:36.497Z,97.227
2016-11-24T06:53:30.266Z,97.303
2016-11-24T06:56:23.689Z,97.251
2016-11-24T06:59:17.161Z,97.051
2016-11-24T07:02:10.425Z,97.227
2016-11-24T07:05:03.772Z,96.791
2016-11-24T07:07:57.184Z,97.022
2016-11-24T07:10:50.518Z,96.801
2016-11-24T07:13:44.031Z,96.464
2016-11-24T07:16:37.446Z,96.510
2016-11-24T07:19:30.811Z,96.519
2016-11-24T07:22:24.144Z,96.625
2016-11-24T07:25:17.538Z,96.416
2016-11-24T07:28:10.988Z,96.174
2016-11-24T07:31:04.359Z,95.690
2016-11-24T07:33:57.841Z,95.630
2016-11-24T07:36:51.246Z,95.341
2016-11-24T07:39:44.726Z,95.267
2016-11-24T07:42:38.734Z,95.155
2016-11-24T07:48:25.233Z,94.511
2016-11-24T07:51:18.667Z,94.566
2016-11-24T07:54:12.112Z,94.411
2016-11-24T07:57:05.656Z,94.033
2016-11-24T07:59:59.220Z,93.178
2016-11-24T08:02:52.593Z,93.017
2016-11-24T08:05:45.916Z,91.933
2016-11-24T08:08:39.498Z,90.540
2016-11-24T08:11:33.038Z,89.813
2016-11-24T08:14:26.514Z,90.037
2016-11-24T08:17:20.066Z,89.236
2016-11-24T08:20:13.639Z,89.458
2016-11-24T08:23:07.077Z,89.100
2016-11-24T08:26:00.522Z,88.476
2016-11-24T08:28:53.939Z,89.059
2016-11-24T08:31:47.473Z,88.916
2016-11-24T08:34:41.013Z,88.381
2016-11-24T08:37:34.492Z,88.398
2016-11-24T08:40:27.933Z,88.804
2016-11-24T08:43:21.524Z,88.712
2016-11-24T08:46:15.005Z,88.181
2016-11-24T08:49:08.511Z,86.878
2016-11-24T08:52:02.066Z,86.053
2016-11-24T08:54:55.658Z,85.641
2016-11-24T08:57:49.935Z,84.467
2016-11-24T09:00:43.687Z,84.277
2016-11-24T09:03:37.423Z,82.931
2016-11-24T09:06:31.161Z,82.271
2016-11-24T09:09:24.932Z,82.626
2016-11-24T09:12:18.795Z,80.738
2016-11-24T09:15:12.617Z,79.507
2016-11-24T09:18:06.421Z,77.582
2016-11-24T09:21:00.035Z,76.990
2016-11-24T09:26:47.833Z,75.584
2016-11-24T09:29:41.699Z,75.048
2016-11-24T09:32:35.471Z,74.470
2016-11-24T09:35:29.938Z,71.959
2016-11-24T09:38:23.895Z,70.807
2016-11-24T09:41:18.035Z,70.427
2016-11-24T09:44:11.890Z,67.905
2016-11-24T09:47:05.707Z,67.916
2016-11-24T09:49:59.495Z,68.375
2016-11-24T09:52:53.236Z,66.640
2016-11-24T09:55:47.207Z,70.642
2016-11-24T09:58:41.080Z,70.455
2016-11-24T10:01:34.781Z,69.158
2016-11-24T10:04:28.634Z,68.196
2016-11-24T10:07:22.297Z,69.773
2016-11-24T10:10:16.146Z,67.264
2016-11-24T10:13:09.947Z,68.322
2016-11-24T10:16:03.725Z,67.063
2016-11-24T10:18:57.529Z,67.836
2016-11-24T10:21:51.192Z,68.494
2016-11-24T10:24:44.878Z,68.629
2016-11-24T10:27:38.644Z,69.051
2016-11-24T10:30:32.229Z,69.910
2016-11-24T10:33:25.914Z,68.110
2016-11-24T10:36:19.609Z,69.102
2016-11-24T10:39:13.095Z,70.472
2016-11-24T10:42:06.616Z,72.068
2016-11-24T10:45:00.211Z,72.309
2016-11-24T10:47:53.793Z,73.448
2016-11-24T10:50:47.514Z,73.854
2016-11-24T10:53:41.146Z,73.824
2016-11-24T10:56:34.742Z,74.684
2016-11-24T10:59:28.240Z,75.354
2016-11-24T11:02:24.617Z,76.149
2016-11-24T11:05:15.387Z,76.310
2016-11-24T11:08:08.884Z,77.226
2016-11-24T11:11:02.333Z,77.296
2016-11-24T11:13:55.900Z,78.157
2016-11-24T11:16:49.474Z,77.576
2016-11-24T11:19:43.052Z,77.617
2016-11-24T11:22:36.700Z,77.800
2016-11-24T11:25:30.156Z,77.620
2016-11-24T11:28:23.724Z,78.001
2016-11-24T11:31:17.194Z,77.565
2016-11-24T11:37:04.245Z,79.444
2016-11-24T11:39:57.681Z,78.022
2016-11-24T11:42:52.789Z,78.660
2016-11-24T11:45:44.875Z,78.440
2016-11-24T11:48:38.498Z,79.001
2016-11-24T11:51:32.083Z,78.254
2016-11-24T11:54:25.651Z,78.197
2016-11-24T11:57:19.173Z,77.315
2016-11-24T12:00:12.680Z,78.293
2016-11-24T12:03:06.166Z,78.240
2016-11-24T12:05:59.620Z,78.491
2016-11-24T12:08:53.191Z,77.914
2016-11-24T12:11:46.735Z,77.258
2016-11-24T12:14:40.237Z,77.676
2016-11-24T12:17:33.750Z,77.878
2016-11-24T12:20:27.187Z,77.480
2016-11-24T12:23:20.710Z,78.056
2016-11-24T12:26:14.283Z,78.110
2016-11-24T12:29:07.886Z,78.572
2016-11-24T12:32:01.368Z,77.555
2016-11-24T12:34:54.829Z,78.345
2016-11-24T12:37:48.322Z,78.008
2016-11-24T12:40:41.795Z,78.401
2016-11-24T12:43:35.349Z,77.974
2016-11-24T12:46:29.035Z,79.439
2016-11-24T12:49:22.503Z,79.041
2016-11-24T12:52:16.348Z,79.518
2016-11-24T12:58:03.357Z,79.544
2016-11-24T13:00:56.920Z,79.885
2016-11-24T13:03:50.407Z,80.221
2016-11-24T13:06:43.765Z,79.813
2016-11-24T13:09:37.212Z,80.202
2016-11-24T13:12:30.725Z,79.828
2016-11-24T13:15:23.888Z,79.697
2016-11-24T13:18:17.044Z,79.766
2016-11-24T13:21:10.220Z,79.936
2016-11-24T13:26:56.779Z,80.123
2016-11-24T13:29:50.250Z,80.446
2016-11-24T13:32:43.540Z,80.570
2016-11-24T13:35:36.752Z,80.643
2016-11-24T13:38:30.393Z,80.262
2016-11-24T13:41:23.602Z,80.650
2016-11-24T13:44:17.116Z,80.455
2016-11-24T13:47:10.635Z,80.654
2016-11-24T13:50:04.177Z,80.287
2016-11-24T13:52:57.770Z,81.375
2016-11-24T13:55:51.310Z,81.340
2016-11-24T13:58:44.733Z,79.952
2016-11-24T14:01:37.917Z,81.292
2016-11-24T14:04:31.142Z,81.202
2016-11-24T14:07:24.321Z,82.602
2016-11-24T14:10:17.728Z,81.425
2016-11-24T14:13:11.197Z,81.500
2016-11-24T14:16:04.709Z,81.980
2016-11-24T14:18:58.297Z,82.567
2016-11-24T14:21:51.653Z,82.521
2016-11-24T14:24:44.779Z,81.608
2016-11-24T14:27:38.219Z,82.139
2016-11-24T14:30:31.715Z,82.418
2016-11-24T14:33:25.244Z,82.502
2016-11-24T14:36:18.722Z,82.348
2016-11-24T14:39:12.121Z,82.678
2016-11-24T14:42:05.529Z,82.625
2016-11-24T14:44:58.702Z,82.037
2016-11-24T14:47:51.739Z,83.170
2016-11-24T14:50:45.201Z,82.694
2016-11-24T14:56:32.307Z,83.074
2016-11-24T14:59:25.750Z,82.708
2016-11-24T15:02:19.236Z,84.046
2016-11-24T15:05:12.727Z,82.328
2016-11-24T15:08:06.032Z,83.430
2016-11-24T15:10:59.378Z,82.919
2016-11-24T15:13:52.838Z,83.769
2016-11-24T15:16:46.189Z,83.121
2016-11-24T15:19:39.858Z,83.430
2016-11-24T15:22:33.249Z,83.955
2016-11-24T15:25:26.512Z,84.028
2016-11-24T15:28:19.793Z,84.533
2016-11-24T15:31:13.125Z,84.186
2016-11-24T15:34:06.465Z,84.204
2016-11-24T15:36:59.709Z,86.018
2016-11-24T15:39:53.040Z,84.845
2016-11-24T15:42:46.350Z,85.276
2016-11-24T15:45:39.729Z,84.352
2016-11-24T15:48:32.979Z,85.727
2016-11-24T15:51:26.310Z,86.042
2016-11-24T15:54:19.522Z,85.129
2016-11-24T15:57:12.805Z,85.464
2016-11-24T16:00:06.111Z,85.276
2016-11-24T16:02:59.348Z,85.614
2016-11-24T16:05:52.574Z,86.354
2016-11-24T16:08:46.210Z,86.508
2016-11-24T16:11:39.581Z,85.922
2016-11-24T16:14:32.942Z,87.192
2016-11-24T16:17:26.159Z,87.190
2016-11-24T16:20:19.467Z,87.271
2016-11-24T16:23:12.747Z,87.285
2016-11-24T16:26:05.954Z,86.957
2016-11-24T16:29:00.163Z,86.683
2016-11-24T16:31:52.513Z,87.181
2016-11-24T16:34:45.789Z,86.945
2016-11-24T16:37:39.134Z,87.713
2016-11-24T16:40:32.404Z,87.258
2016-11-24T16:43:26.223Z,87.909
2016-11-24T16:46:19.411Z,88.443
2016-11-24T16:49:12.809Z,87.512
2016-11-24T16:52:06.057Z,87.500
2016-11-24T16:54:59.480Z,87.825
2016-11-24T16:57:52.586Z,88.276
2016-11-24T17:00:45.963Z,89.379
2016-11-24T17:03:39.316Z,88.020
2016-11-24T17:06:32.588Z,88.166
2016-11-24T17:09:25.862Z,87.899
2016-11-24T17:12:19.217Z,88.312
2016-11-24T17:15:12.463Z,88.597
2016-11-24T17:18:05.741Z,88.145
2016-11-24T17:20:59.009Z,88.521
2016-11-24T17:23:52.476Z,88.437
2016-11-24T17:26:45.696Z,88.587
2016-11-24T17:29:38.863Z,88.940
2016-11-24T17:32:32.061Z,89.129
2016-11-24T17:35:25.429Z,88.497
2016-11-24T17:38:18.556Z,87.197
2016-11-24T17:41:11.716Z,87.927
2016-11-24T17:44:05.480Z,88.909
2016-11-24T17:46:58.805Z,88.242
2016-11-24T17:49:52.115Z,87.964
2016-11-24T17:52:45.363Z,88.569
2016-11-24T17:55:39.424Z,89.292
2016-11-24T17:58:31.681Z,89.452
2016-11-24T18:01:24.955Z,90.169
2016-11-24T18:04:18.243Z,90.008
2016-11-24T18:07:11.358Z,91.104
2016-11-24T18:10:04.564Z,91.088
2016-11-24T18:12:57.743Z,90.758
2016-11-24T18:15:50.972Z,90.359
2016-11-24T18:18:44.148Z,91.513
2016-11-24T18:21:37.434Z,91.333
2016-11-24T18:24:30.740Z,90.379
2016-11-24T18:27:24.937Z,90.549
2016-11-24T18:30:17.198Z,90.313
2016-11-24T18:33:10.445Z,90.429
2016-11-24T18:36:03.798Z,91.171
2016-11-24T18:38:57.002Z,92.039
2016-11-24T18:41:50.164Z,91.538
2016-11-24T18:44:43.446Z,92.108
2016-11-24T18:47:36.709Z,91.664
2016-11-24T18:50:29.866Z,91.669
2016-11-24T18:53:23.014Z,92.684
2016-11-24T18:56:16.131Z,92.191
2016-11-24T18:59:09.222Z,92.277
2016-11-24T19:02:02.416Z,92.384
2016-11-24T19:04:55.545Z,92.837
2016-11-24T19:07:48.724Z,92.714
2016-11-24T19:10:41.942Z,92.421
2016-11-24T19:13:35.159Z,92.166
2016-11-24T19:16:28.207Z,92.521
2016-11-24T19:19:21.366Z,92.715
2016-11-24T19:22:14.441Z,92.470
2016-11-24T19:25:07.662Z,92.127
2016-11-24T19:28:00.911Z,93.087
2016-11-24T19:30:54.124Z,92.572
2016-11-24T19:33:47.245Z,92.151
2016-11-24T19:36:40.298Z,92.559
2016-11-24T19:39:33.491Z,93.119
2016-11-24T19:42:27.592Z,92.320
2016-11-24T19:45:19.862Z,92.573
2016-11-24T19:48:12.896Z,93.381
2016-11-24T19:51:06.127Z,92.977
2016-11-24T19:53:59.081Z,92.541
2016-11-24T19:56:52.175Z,93.325
2016-11-24T19:59:45.305Z,92.967
2016-11-24T20:02:38.539Z,93.837
2016-11-24T20:05:31.666Z,94.307
2016-11-24T20:08:24.801Z,93.459
2016-11-24T20:11:17.856Z,93.773
2016-11-24T20:14:11.097Z,94.002
2016-11-24T20:17:04.257Z,94.469
2016-11-24T20:19:57.274Z,94.208
2016-11-24T20:22:50.390Z,94.410
2016-11-24T20:25:43.470Z,94.232
2016-11-24T20:28:36.612Z,94.508
2016-11-24T20:31:29.650Z,93.872
2016-11-24T20:34:23.402Z,94.811
2016-11-24T20:37:16.476Z,94.101
2016-11-24T20:40:09.590Z,93.344
2016-11-24T20:43:02.577Z,93.612
2016-11-24T20:45:55.584Z,92.809
2016-11-24T20:48:48.649Z,94.166
2016-11-24T20:51:42.601Z,94.694
2016-11-24T20:54:34.790Z,94.540
2016-11-24T20:57:27.953Z,95.022
2016-11-24T21:00:20.959Z,93.819
2016-11-24T21:03:14.033Z,93.972
2016-11-24T21:06:07.023Z,92.994
2016-11-24T21:09:00.082Z,93.748
2016-11-24T21:11:53.242Z,94.424
2016-11-24T21:14:46.488Z,94.524
2016-11-24T21:17:39.451Z,93.776
2016-11-24T21:20:32.505Z,94.455
2016-11-24T21:23:25.601Z,94.440
2016-11-24T21:26:18.607Z,94.053
2016-11-24T21:29:11.721Z,94.096
2016-11-24T21:32:04.804Z,93.073
2016-11-24T21:34:58.774Z,93.750
2016-11-24T21:37:50.805Z,93.820
2016-11-24T21:40:43.839Z,94.641
2016-11-24T21:43:36.873Z,94.336
2016-11-24T21:46:29.989Z,94.095
2016-11-24T21:49:22.990Z,95.108
2016-11-24T21:52:17.024Z,94.933
2016-11-24T21:55:09.131Z,94.540
2016-11-24T21:58:02.246Z,93.513
2016-11-24T22:00:55.224Z,93.922
2016-11-24T22:03:48.974Z,94.888
2016-11-24T22:06:41.397Z,95.001
2016-11-24T22:09:34.451Z,94.227
2016-11-24T22:12:27.517Z,94.100
2016-11-24T22:15:20.432Z,94.051
2016-11-24T22:18:13.506Z,94.013
2016-11-24T22:21:06.798Z,93.842
2016-11-24T22:23:59.895Z,93.791
2016-11-24T22:26:53.913Z,93.459
2016-11-24T22:29:45.972Z,93.958
2016-11-24T22:32:39.103Z,93.176
2016-11-24T22:35:33.127Z,92.336
2016-11-24T22:38:25.192Z,93.688
2016-11-24T22:41:18.209Z,92.395
2016-11-24T22:44:11.151Z,93.789
2016-11-24T22:47:04.142Z,95.131
2016-11-24T22:49:57.105Z,94.981
2016-11-24T22:52:50.088Z,95.262
2016-11-24T22:55:44.042Z,96.147
2016-11-24T22:58:36.338Z,94.778
2016-11-24T23:01:29.264Z,95.523
2016-11-24T23:04:22.218Z,95.158
2016-11-24T23:07:15.224Z,95.549
2016-11-24T23:10:08.171Z,95.289
2016-11-24T23:13:02.001Z,96.151
2016-11-24T23:15:54.079Z,94.463
2016-11-24T23:18:47.095Z,94.868
2016-11-24T23:21:40.034Z,94.998
2016-11-24T23:24:32.896Z,95.378
2016-11-24T23:27:25.848Z,94.809
2016-11-24T23:30:18.708Z,95.448
2016-11-24T23:33:11.582Z,95.166
2016-11-24T23:36:04.480Z,95.494
2016-11-24T23:38:57.370Z,96.005
2016-11-24T23:41:50.354Z,96.858
2016-11-24T23:44:43.369Z,96.370
2016-11-24T23:47:36.304Z,96.681
2016-11-24T23:50:29.233Z,97.109
2016-11-24T23:53:22.690Z,96.739
2016-11-24T23:56:16.647Z,96.849
2016-11-24T23:59:09.576Z,96.827
